Time;durP1;ratioP1;P1;durP2;ratioP2;P2;SDS_P1;SDS_P2;PMS_P1;PMS_P2;Temp;Humidity;BMP_temperature;BMP_pressure;BME280_temperature;BME280_humidity;BME280_pressure;Samples;Min_cycle;Max_cycle;Signal;HPM_P1;HPM_P2
2021/06/16 00:00:23;;;;;;;6.33;5.83;;;18.20;99.90;;;;;;4917658;29;20209;-80
2021/06/16 00:02:50;;;;;;;6.73;5.90;;;18.20;99.90;;;;;;4915307;29;20709;-81
2021/06/16 00:05:20;;;;;;;6.77;6.10;;;18.20;99.90;;;;;;4916188;29;20221;-80
2021/06/16 00:07:47;;;;;;;6.20;5.60;;;18.20;99.90;;;;;;4916257;29;20208;-81
2021/06/16 00:10:15;;;;;;;6.97;5.80;;;18.20;99.90;;;;;;4916128;29;20207;-80
2021/06/16 00:12:42;;;;;;;6.43;5.83;;;18.10;99.90;;;;;;4914490;29;20225;-81
2021/06/16 00:15:14;;;;;;;7.37;6.03;;;18.00;99.90;;;;;;4914864;29;20237;-80
2021/06/16 00:17:41;;;;;;;6.50;5.90;;;18.00;99.90;;;;;;4914293;29;20222;-81
2021/06/16 00:20:09;;;;;;;6.20;5.60;;;18.00;99.90;;;;;;4914985;29;20226;-80
2021/06/16 00:22:36;;;;;;;6.53;5.90;;;17.90;99.90;;;;;;4914663;29;20666;-80
2021/06/16 00:25:04;;;;;;;7.80;6.27;;;17.90;99.90;;;;;;4914733;29;20253;-81
2021/06/16 00:27:31;;;;;;;6.77;6.17;;;17.80;99.90;;;;;;4914458;29;20203;-81
2021/06/16 00:29:58;;;;;;;6.03;5.47;;;17.80;99.90;;;;;;4914768;29;20208;-80
2021/06/16 00:32:26;;;;;;;6.97;6.10;;;17.80;99.90;;;;;;4914614;29;20233;-81
2021/06/16 00:34:53;;;;;;;6.87;6.30;;;17.80;99.90;;;;;;4914594;29;20209;-81
2021/06/16 00:37:19;;;;;;;6.87;6.23;;;17.70;99.90;;;;;;4914710;29;20746;-80
2021/06/16 00:39:46;;;;;;;7.00;6.40;;;17.70;99.90;;;;;;4915649;29;20212;-80
2021/06/16 00:42:13;;;;;;;7.43;6.50;;;17.60;99.90;;;;;;4915834;29;20282;-81
2021/06/16 00:44:40;;;;;;;6.87;6.20;;;17.60;99.90;;;;;;4914366;29;20292;-81
2021/06/16 00:47:07;;;;;;;7.40;6.27;;;17.60;99.90;;;;;;4915708;29;20216;-81
2021/06/16 00:49:35;;;;;;;6.60;6.00;;;17.50;99.90;;;;;;4914480;29;20213;-81
2021/06/16 00:52:02;;;;;;;7.47;6.70;;;17.50;99.90;;;;;;4915688;29;20269;-80
2021/06/16 00:54:29;;;;;;;6.73;6.20;;;17.50;99.90;;;;;;4914294;29;20232;-80
2021/06/16 00:56:56;;;;;;;6.57;6.03;;;17.50;99.90;;;;;;4915511;29;20967;-81
2021/06/16 00:59:24;;;;;;;6.60;6.00;;;17.50;99.90;;;;;;4914215;29;20212;-81
2021/06/16 01:01:51;;;;;;;6.80;6.20;;;17.40;99.90;;;;;;4915496;29;20257;-81
2021/06/16 01:04:23;;;;;;;6.10;5.70;;;17.40;99.90;;;;;;4914134;29;20727;-81
2021/06/16 01:06:55;;;;;;;6.53;5.93;;;17.30;99.90;;;;;;4912293;29;20283;-81
2021/06/16 01:09:31;;;;;;;6.70;6.10;;;17.30;99.90;;;;;;4911381;29;20325;-81
2021/06/16 01:12:03;;;;;;;6.80;6.30;;;17.30;99.90;;;;;;4916697;29;20212;-81
2021/06/16 01:14:35;;;;;;;7.03;6.43;;;17.20;99.90;;;;;;4921988;29;20237;-82
2021/06/16 01:17:05;;;;;;;7.20;6.53;;;17.20;99.90;;;;;;4922229;29;20194;-83
2021/06/16 01:19:52;;;;;;;7.10;6.50;;;17.20;99.90;;;;;;4921690;29;20215;-81
2021/06/16 01:22:35;;;;;;;7.20;6.60;;;17.20;99.90;;;;;;4917054;29;20247;-82
2021/06/16 01:25:07;;;;;;;7.93;7.23;;;17.20;99.90;;;;;;4919833;29;20226;-81
2021/06/16 01:27:36;;;;;;;7.40;6.80;;;17.10;99.90;;;;;;4918085;29;20204;-81
2021/06/16 01:30:05;;;;;;;6.83;6.27;;;17.20;99.90;;;;;;4920331;29;20216;-81
2021/06/16 01:32:33;;;;;;;7.13;6.53;;;17.20;99.90;;;;;;4919896;29;20245;-82
2021/06/16 01:35:01;;;;;;;7.87;6.87;;;17.10;99.90;;;;;;4919539;29;20208;-81
2021/06/16 01:37:28;;;;;;;7.30;6.67;;;17.10;99.90;;;;;;4918806;29;20208;-81
2021/06/16 01:39:56;;;;;;;7.50;6.80;;;17.10;99.90;;;;;;4917652;29;20208;-82
2021/06/16 01:42:27;;;;;;;7.20;6.50;;;17.10;99.90;;;;;;4918781;29;20245;-81
2021/06/16 01:44:56;;;;;;;7.37;6.77;;;17.00;99.90;;;;;;4917113;29;20223;-81
2021/06/16 01:47:24;;;;;;;7.67;7.07;;;17.00;99.90;;;;;;4919812;29;20209;-82
2021/06/16 01:49:54;;;;;;;7.53;6.90;;;17.00;99.90;;;;;;4918769;29;20200;-81
2021/06/16 01:52:23;;;;;;;7.90;7.10;;;17.00;99.90;;;;;;4918941;29;20221;-81
2021/06/16 01:54:51;;;;;;;6.93;6.33;;;16.90;99.90;;;;;;4902089;29;20198;-81
2021/06/16 01:57:19;;;;;;;7.23;6.63;;;16.90;99.90;;;;;;4917428;29;20210;-82
2021/06/16 01:59:48;;;;;;;7.23;6.63;;;16.90;99.90;;;;;;4917176;29;20204;-81
2021/06/16 02:02:16;;;;;;;7.73;7.07;;;16.90;99.90;;;;;;4919147;29;20248;-81
2021/06/16 02:04:43;;;;;;;7.77;7.00;;;16.80;99.90;;;;;;4918090;29;20219;-82
2021/06/16 02:07:15;;;;;;;7.00;6.40;;;16.80;99.90;;;;;;4917826;29;20216;-81
2021/06/16 02:09:45;;;;;;;7.30;6.70;;;16.80;99.90;;;;;;4918361;29;20195;-81
2021/06/16 02:12:15;;;;;;;7.43;6.83;;;16.80;99.90;;;;;;4916531;29;20342;-81
2021/06/16 02:14:47;;;;;;;7.23;6.63;;;16.80;99.90;;;;;;4924196;29;20249;-82
2021/06/16 02:17:17;;;;;;;7.97;7.30;;;16.70;99.90;;;;;;4917657;29;20750;-81
2021/06/16 02:19:47;;;;;;;7.60;7.00;;;16.60;99.90;;;;;;4916342;29;20200;-81
2021/06/16 02:22:14;;;;;;;7.80;7.10;;;16.60;99.90;;;;;;4915994;29;20210;-81
2021/06/16 02:24:42;;;;;;;10.03;7.87;;;16.60;99.90;;;;;;4918709;29;20224;-81
2021/06/16 02:27:09;;;;;;;8.70;7.90;;;16.60;99.90;;;;;;4921373;29;20206;-81
2021/06/16 02:29:36;;;;;;;7.43;6.53;;;16.50;99.90;;;;;;4920697;29;20225;-81
2021/06/16 02:32:04;;;;;;;8.03;7.23;;;16.60;99.90;;;;;;4919641;29;20219;-80
2021/06/16 02:34:33;;;;;;;7.80;7.10;;;16.50;99.90;;;;;;4920705;29;20725;-81
2021/06/16 02:37:03;;;;;;;7.43;6.83;;;16.40;99.90;;;;;;4918829;29;20210;-81
2021/06/16 02:39:35;;;;;;;8.00;7.30;;;16.40;99.90;;;;;;4920699;29;20699;-79
2021/06/16 02:42:04;;;;;;;8.53;7.37;;;16.40;99.90;;;;;;4919692;29;20546;-79
2021/06/16 02:44:31;;;;;;;7.97;7.27;;;16.40;99.90;;;;;;4917774;29;20714;-78
2021/06/16 02:46:59;;;;;;;8.03;7.33;;;16.40;99.90;;;;;;4917084;29;20259;-78
2021/06/16 02:49:31;;;;;;;8.67;7.77;;;16.40;99.90;;;;;;4916694;29;20201;-80
2021/06/16 02:52:01;;;;;;;8.20;7.50;;;16.30;99.90;;;;;;4915559;29;20204;-79
2021/06/16 02:54:31;;;;;;;7.87;7.17;;;16.40;99.90;;;;;;4916998;29;20202;-79
2021/06/16 02:56:59;;;;;;;8.00;7.30;;;16.40;99.90;;;;;;4915005;29;20213;-79
2021/06/16 02:59:29;;;;;;;8.50;7.80;;;16.30;99.90;;;;;;4913466;29;20635;-79
2021/06/16 03:01:56;;;;;;;7.77;7.03;;;16.30;99.90;;;;;;4917275;29;20200;-79
2021/06/16 03:04:24;;;;;;;8.00;7.30;;;16.30;99.90;;;;;;4916133;29;20264;-80
2021/06/16 03:06:53;;;;;;;7.27;6.67;;;16.30;99.90;;;;;;4910852;29;20209;-80
2021/06/16 03:09:23;;;;;;;7.90;7.20;;;16.20;99.90;;;;;;4913483;29;20212;-80
2021/06/16 03:11:51;;;;;;;7.77;7.07;;;16.20;99.90;;;;;;4918732;29;20211;-77
2021/06/16 03:14:22;;;;;;;8.20;7.57;;;16.20;99.90;;;;;;4917433;29;20230;-78
2021/06/16 03:16:48;;;;;;;8.23;7.43;;;16.20;99.90;;;;;;4918483;29;20196;-78
2021/06/16 03:19:15;;;;;;;9.90;7.97;;;16.20;99.90;;;;;;4918264;29;20208;-77
2021/06/16 03:21:45;;;;;;;7.53;6.90;;;16.20;99.90;;;;;;4913859;29;20207;-80
2021/06/16 03:24:12;;;;;;;8.23;7.13;;;16.20;99.90;;;;;;4912791;29;20216;-78
2021/06/16 03:26:41;;;;;;;8.00;7.30;;;16.20;99.90;;;;;;4917312;29;20210;-78
2021/06/16 03:29:10;;;;;;;8.10;7.50;;;16.20;99.90;;;;;;4917061;29;20695;-79
2021/06/16 03:31:40;;;;;;;8.00;7.20;;;16.20;99.90;;;;;;4915942;29;20204;-78
2021/06/16 03:34:07;;;;;;;7.97;7.20;;;16.10;99.90;;;;;;4915546;29;20223;-78
2021/06/16 03:36:35;;;;;;;7.60;7.00;;;16.20;99.90;;;;;;4915652;29;20200;-78
2021/06/16 03:39:04;;;;;;;8.23;7.53;;;16.20;99.90;;;;;;4916058;29;20204;-78
2021/06/16 03:41:31;;;;;;;8.20;7.40;;;16.20;99.90;;;;;;4917112;29;20200;-77
2021/06/16 03:44:00;;;;;;;8.50;7.30;;;16.30;99.90;;;;;;4916463;29;20236;-79
2021/06/16 03:46:29;;;;;;;8.33;7.63;;;16.30;99.90;;;;;;4916725;29;20224;-78
2021/06/16 03:48:57;;;;;;;8.00;7.40;;;16.40;99.90;;;;;;4915526;29;20209;-79
2021/06/16 03:51:26;;;;;;;8.47;7.70;;;16.40;99.90;;;;;;4914782;29;20210;-78
2021/06/16 03:53:54;;;;;;;8.60;7.90;;;16.50;99.90;;;;;;4914338;29;20232;-78
2021/06/16 03:56:22;;;;;;;8.30;7.50;;;16.60;99.90;;;;;;4924764;29;20263;-79
2021/06/16 03:58:50;;;;;;;8.27;7.67;;;16.70;99.90;;;;;;4909788;29;20213;-79
2021/06/16 04:01:18;;;;;;;8.20;7.40;;;16.80;99.90;;;;;;4914793;29;20696;-79
2021/06/16 04:03:46;;;;;;;7.60;6.90;;;16.80;99.90;;;;;;4918189;29;20216;-78
2021/06/16 04:06:14;;;;;;;8.97;8.00;;;16.90;99.90;;;;;;4918336;29;20214;-79
2021/06/16 04:08:43;;;;;;;8.33;7.63;;;17.00;99.90;;;;;;4917373;29;20305;-78
2021/06/16 04:11:13;;;;;;;8.40;7.70;;;17.10;99.90;;;;;;4916292;29;20675;-78
2021/06/16 04:13:40;;;;;;;8.60;7.80;;;17.20;99.90;;;;;;4916641;29;20763;-78
2021/06/16 04:16:08;;;;;;;8.93;8.13;;;17.30;99.90;;;;;;4917195;29;20559;-78
2021/06/16 04:18:39;;;;;;;8.53;7.80;;;17.30;99.90;;;;;;4916511;29;20226;-79
2021/06/16 04:21:06;;;;;;;9.83;7.70;;;17.50;99.90;;;;;;4917422;29;20199;-79
2021/06/16 04:23:33;;;;;;;7.23;6.37;;;17.50;99.90;;;;;;4917898;29;20228;-79
2021/06/16 04:26:00;;;;;;;7.27;6.57;;;17.70;99.90;;;;;;4919130;29;20233;-79
2021/06/16 04:28:27;;;;;;;8.07;7.37;;;17.80;99.90;;;;;;4918454;29;20268;-80
2021/06/16 04:30:54;;;;;;;8.20;7.60;;;17.90;99.90;;;;;;4918762;29;20195;-78
2021/06/16 04:33:22;;;;;;;8.23;7.53;;;18.10;99.90;;;;;;4918150;29;20272;-76
2021/06/16 04:35:56;;;;;;;7.50;6.90;;;18.10;99.90;;;;;;4920809;29;20261;-77
2021/06/16 04:38:23;;;;;;;7.03;6.23;;;18.30;99.90;;;;;;4917399;29;20214;-77
2021/06/16 04:40:50;;;;;;;7.23;6.63;;;18.40;99.90;;;;;;4917952;29;20607;-78
2021/06/16 04:43:17;;;;;;;8.37;7.17;;;18.60;99.90;;;;;;4919092;29;20246;-78
2021/06/16 04:45:44;;;;;;;7.73;7.03;;;18.60;99.90;;;;;;4917846;29;20225;-79
2021/06/16 04:48:10;;;;;;;7.20;6.67;;;18.70;99.90;;;;;;4909324;29;20216;-80
2021/06/16 04:50:37;;;;;;;5.10;4.60;;;18.90;99.90;;;;;;4917508;29;20196;-77
2021/06/16 04:53:06;;;;;;;6.63;5.90;;;19.10;99.90;;;;;;4919045;29;20211;-77
2021/06/16 04:55:33;;;;;;;6.87;5.43;;;19.40;99.90;;;;;;4919635;29;20203;-77
2021/06/16 04:57:59;;;;;;;6.50;5.90;;;19.50;99.90;;;;;;4918322;29;20580;-78
2021/06/16 05:00:26;;;;;;;7.07;6.37;;;19.50;99.90;;;;;;4919530;29;20260;-78
2021/06/16 05:02:54;;;;;;;6.73;6.17;;;19.60;99.90;;;;;;4920048;29;20734;-77
2021/06/16 05:05:21;;;;;;;6.00;5.40;;;19.70;99.90;;;;;;4919327;29;20274;-78
2021/06/16 05:07:48;;;;;;;6.70;6.03;;;19.70;99.90;;;;;;4918579;29;20211;-77
2021/06/16 05:10:16;;;;;;;4.83;4.00;;;19.80;99.90;;;;;;4918508;29;20216;-76
2021/06/16 05:12:43;;;;;;;4.70;4.10;;;19.90;99.90;;;;;;4919049;29;20221;-78
2021/06/16 05:15:11;;;;;;;7.83;5.67;;;19.90;99.90;;;;;;4958435;23;20613;-77
2021/06/16 05:17:39;;;;;;;5.90;5.40;;;20.00;99.90;;;;;;4934009;29;20533;-76
2021/06/16 05:20:08;;;;;;;6.90;6.20;;;20.20;99.90;;;;;;4949327;28;20214;-77
2021/06/16 05:22:35;;;;;;;6.90;6.30;;;20.30;99.90;;;;;;4953224;28;20208;-77
2021/06/16 05:25:04;;;;;;;5.73;5.23;;;20.50;99.90;;;;;;4953172;28;20286;-77
2021/06/16 05:27:32;;;;;;;6.77;6.27;;;20.50;99.90;;;;;;4953036;28;20205;-77
2021/06/16 05:29:59;;;;;;;7.33;6.63;;;20.50;99.90;;;;;;4953012;28;20204;-77
2021/06/16 05:32:26;;;;;;;6.20;3.77;;;20.60;99.90;;;;;;4947444;28;20208;-77
2021/06/16 05:34:53;;;;;;;7.30;6.30;;;20.60;99.90;;;;;;4951606;28;20228;-77
2021/06/16 05:37:20;;;;;;;4.93;4.43;;;20.80;99.90;;;;;;4953085;29;20198;-77
2021/06/16 05:39:47;;;;;;;6.10;5.60;;;21.00;99.90;;;;;;4953075;28;20216;-77
2021/06/16 05:42:14;;;;;;;5.13;4.63;;;21.40;99.90;;;;;;4951765;28;20229;-77
2021/06/16 05:44:42;;;;;;;4.93;4.53;;;21.60;99.90;;;;;;4952605;28;20339;-77
2021/06/16 05:47:09;;;;;;;4.90;4.33;;;21.90;99.90;;;;;;4951460;28;20297;-77
2021/06/16 05:49:35;;;;;;;5.73;3.97;;;22.00;99.90;;;;;;4951597;28;20203;-76
2021/06/16 05:52:03;;;;;;;6.87;5.80;;;22.20;99.90;;;;;;4947513;28;20275;-76
2021/06/16 05:54:29;;;;;;;6.93;6.23;;;22.40;99.90;;;;;;4950359;28;20648;-77
2021/06/16 05:56:58;;;;;;;6.77;5.97;;;22.50;99.90;;;;;;4953282;28;20697;-77
2021/06/16 05:59:25;;;;;;;4.53;4.07;;;22.70;99.90;;;;;;4956501;28;20206;-77
2021/06/16 06:01:53;;;;;;;6.90;3.83;;;23.00;99.90;;;;;;4955288;28;20202;-77
2021/06/16 06:04:20;;;;;;;4.93;3.97;;;23.30;99.90;;;;;;4956525;28;20274;-77
2021/06/16 06:06:47;;;;;;;5.03;4.00;;;23.50;99.90;;;;;;4955749;28;20218;-78
2021/06/16 06:09:14;;;;;;;4.53;4.10;;;23.80;99.90;;;;;;4956816;28;20210;-77
2021/06/16 06:11:40;;;;;;;5.83;4.20;;;23.70;99.90;;;;;;4956787;28;20198;-77
2021/06/16 06:14:07;;;;;;;7.47;6.77;;;23.80;99.90;;;;;;4957110;28;20659;-77
2021/06/16 06:16:34;;;;;;;6.57;6.00;;;23.90;99.90;;;;;;4956734;28;20198;-77
2021/06/16 06:19:03;;;;;;;6.63;6.03;;;24.30;99.90;;;;;;4956820;28;20292;-77
2021/06/16 06:21:31;;;;;;;6.57;5.97;;;24.50;99.90;;;;;;4955549;28;20626;-77
2021/06/16 06:23:59;;;;;;;6.47;5.97;;;24.70;99.90;;;;;;4957145;28;20227;-77
2021/06/16 06:26:26;;;;;;;7.00;6.30;;;24.90;99.90;;;;;;4958499;28;20223;-77
2021/06/16 06:28:53;;;;;;;7.50;6.03;;;25.10;99.90;;;;;;4952240;28;20273;-77
2021/06/16 06:31:20;;;;;;;6.53;6.03;;;25.40;99.90;;;;;;4956337;28;20210;-78
2021/06/16 06:33:47;;;;;;;7.07;6.33;;;25.40;99.90;;;;;;4943941;28;20698;-77
2021/06/16 06:36:15;;;;;;;7.20;6.57;;;25.60;99.90;;;;;;4955735;28;20197;-77
2021/06/16 06:38:42;;;;;;;7.60;6.30;;;25.80;99.90;;;;;;4954667;29;20280;-77
2021/06/16 06:41:09;;;;;;;6.67;6.07;;;25.80;99.90;;;;;;4955788;28;20289;-77
2021/06/16 06:43:35;;;;;;;6.63;5.70;;;26.00;99.90;;;;;;4955665;28;20218;-75
2021/06/16 06:46:02;;;;;;;6.50;5.90;;;26.30;99.90;;;;;;4955320;28;20214;-77
2021/06/16 06:48:29;;;;;;;6.57;5.97;;;26.40;99.90;;;;;;4955718;28;20605;-79
2021/06/16 06:50:56;;;;;;;6.97;6.27;;;26.40;99.90;;;;;;4949969;28;20203;-77
2021/06/16 06:53:25;;;;;;;6.50;6.00;;;26.50;99.90;;;;;;4952363;28;20206;-78
2021/06/16 06:55:52;;;;;;;6.20;5.60;;;26.80;99.90;;;;;;4954229;28;20246;-77
2021/06/16 06:58:19;;;;;;;6.77;6.13;;;26.80;99.90;;;;;;4955536;29;20209;-78
2021/06/16 07:00:45;;;;;;;6.50;5.90;;;26.90;99.90;;;;;;4955000;28;20195;-78
2021/06/16 07:03:12;;;;;;;6.50;6.00;;;27.00;99.90;;;;;;4955401;28;20210;-77
2021/06/16 07:05:39;;;;;;;6.30;5.70;;;27.30;99.90;;;;;;4948161;28;20223;-78
2021/06/16 07:08:06;;;;;;;6.40;5.90;;;27.50;99.90;;;;;;4949399;28;20211;-76
2021/06/16 07:10:35;;;;;;;5.60;5.20;;;27.60;99.90;;;;;;4952972;28;20251;-77
2021/06/16 07:13:03;;;;;;;6.57;5.97;;;27.60;99.90;;;;;;4955229;28;20194;-78
2021/06/16 07:15:30;;;;;;;6.13;5.63;;;28.00;99.90;;;;;;4954050;29;20234;-78
2021/06/16 07:17:57;;;;;;;5.70;5.30;;;28.00;99.90;;;;;;4955077;29;20287;-77
2021/06/16 07:20:24;;;;;;;6.50;5.87;;;28.30;99.90;;;;;;4955439;29;20199;-78
2021/06/16 07:22:51;;;;;;;6.73;5.90;;;28.30;99.90;;;;;;4955379;29;20191;-78
2021/06/16 07:25:19;;;;;;;5.97;5.47;;;28.40;99.90;;;;;;4955102;28;20214;-77
2021/06/16 07:27:47;;;;;;;5.63;5.20;;;28.40;99.90;;;;;;4953769;28;20198;-77
2021/06/16 07:30:15;;;;;;;5.83;5.40;;;28.60;99.90;;;;;;4953696;28;20253;-77
2021/06/16 07:32:43;;;;;;;11.67;6.40;;;28.60;99.90;;;;;;4954806;28;20195;-78
2021/06/16 07:35:10;;;;;;;5.90;5.40;;;28.30;99.90;;;;;;4953494;28;20234;-77
2021/06/16 07:37:38;;;;;;;6.20;5.60;;;28.20;99.90;;;;;;4954663;28;20254;-77
2021/06/16 07:40:08;;;;;;;6.13;5.63;;;28.50;99.90;;;;;;4954909;28;20198;-77
2021/06/16 07:42:35;;;;;;;6.00;5.50;;;28.30;99.90;;;;;;4955031;29;20198;-77
2021/06/16 07:45:04;;;;;;;5.73;5.23;;;28.40;99.90;;;;;;4954782;29;20214;-77
2021/06/16 07:47:31;;;;;;;6.13;5.43;;;28.50;99.90;;;;;;4953266;28;20701;-77
2021/06/16 07:49:57;;;;;;;5.93;5.43;;;28.50;99.90;;;;;;4953166;28;20297;-77
2021/06/16 07:52:26;;;;;;;5.50;5.00;;;28.80;99.70;;;;;;4953888;29;20199;-78
2021/06/16 07:54:53;;;;;;;5.43;4.93;;;29.00;99.60;;;;;;4952906;28;20669;-77
2021/06/16 07:57:19;;;;;;;6.07;5.50;;;29.20;99.40;;;;;;4954285;29;20202;-77
2021/06/16 07:59:46;;;;;;;5.93;5.30;;;29.50;98.00;;;;;;4954734;29;20250;-78
2021/06/16 08:02:15;;;;;;;5.77;4.93;;;29.60;97.80;;;;;;4953931;28;20626;-78
2021/06/16 08:04:42;;;;;;;8.27;5.97;;;29.70;96.50;;;;;;4952645;28;20846;-78
2021/06/16 08:07:10;;;;;;;5.77;5.27;;;29.90;98.20;;;;;;4952914;28;20242;-78
2021/06/16 08:09:37;;;;;;;8.90;5.67;;;30.20;97.50;;;;;;4952964;28;20619;-77
2021/06/16 08:12:07;;;;;;;5.80;5.30;;;30.20;97.20;;;;;;4949639;28;20738;-78
2021/06/16 08:14:34;;;;;;;5.50;5.00;;;30.50;98.00;;;;;;4952165;28;20289;-78
2021/06/16 08:17:03;;;;;;;6.37;5.73;;;30.80;96.60;;;;;;4953968;28;20254;-78
2021/06/16 08:19:31;;;;;;;6.27;5.63;;;30.50;96.10;;;;;;4954088;29;20250;-78
2021/06/16 08:21:58;;;;;;;5.77;5.27;;;30.10;95.80;;;;;;4954030;28;20706;-77
2021/06/16 08:24:25;;;;;;;7.00;5.60;;;30.20;96.40;;;;;;4953763;28;20729;-78
2021/06/16 08:26:52;;;;;;;7.80;5.83;;;30.00;97.60;;;;;;4953796;28;20211;-78
2021/06/16 08:29:19;;;;;;;5.77;5.23;;;30.10;97.00;;;;;;4953938;28;20210;-77
2021/06/16 08:31:46;;;;;;;6.30;5.70;;;30.20;96.00;;;;;;4961048;28;20678;-78
2021/06/16 08:34:13;;;;;;;6.33;5.37;;;29.90;95.80;;;;;;4953883;28;20716;-77
2021/06/16 08:36:44;;;;;;;6.33;5.33;;;29.80;96.50;;;;;;4953592;28;20261;-78
2021/06/16 08:39:11;;;;;;;5.80;5.30;;;30.00;96.80;;;;;;4953909;28;20199;-77
2021/06/16 08:41:40;;;;;;;5.70;5.20;;;30.40;98.60;;;;;;4953608;28;20623;-78
2021/06/16 08:44:08;;;;;;;6.07;5.50;;;30.30;96.40;;;;;;4948700;28;20730;-78
2021/06/16 08:46:35;;;;;;;5.97;5.40;;;30.50;96.80;;;;;;4965389;28;20706;-77
2021/06/16 08:49:04;;;;;;;6.97;5.30;;;30.40;95.50;;;;;;4947776;29;20218;-77
2021/06/16 08:51:31;;;;;;;5.80;5.40;;;30.60;96.20;;;;;;4953542;28;20201;-78
2021/06/16 08:54:00;;;;;;;6.27;5.73;;;30.90;95.80;;;;;;4953581;28;20226;-78
2021/06/16 08:56:27;;;;;;;5.90;5.40;;;31.10;95.60;;;;;;4953169;28;20199;-78
2021/06/16 08:58:55;;;;;;;5.77;5.30;;;30.90;94.00;;;;;;4953638;28;20290;-77
2021/06/16 09:01:22;;;;;;;7.53;5.60;;;31.10;94.10;;;;;;4952971;28;20226;-77
2021/06/16 09:03:49;;;;;;;5.63;5.20;;;31.10;94.80;;;;;;4952155;28;20257;-78
2021/06/16 09:06:18;;;;;;;5.70;5.30;;;31.40;94.80;;;;;;4953233;29;20218;-77
2021/06/16 09:08:56;;;;;;;7.00;5.50;;;31.70;94.40;;;;;;4953583;28;20210;-77
2021/06/16 09:11:25;;;;;;;5.67;5.27;;;31.80;94.30;;;;;;4953240;28;20198;-78
2021/06/16 09:14:09;;;;;;;7.97;5.90;;;32.10;95.20;;;;;;4953160;28;20234;-78
2021/06/16 09:16:36;;;;;;;7.30;6.10;;;32.30;93.80;;;;;;4951729;28;20226;-78
2021/06/16 09:19:04;;;;;;;7.37;5.43;;;32.40;94.50;;;;;;4953271;28;20202;-78
2021/06/16 09:21:38;;;;;;;6.07;5.43;;;32.50;93.10;;;;;;4953214;28;20199;-77
2021/06/16 09:24:06;;;;;;;6.10;5.50;;;32.70;92.80;;;;;;4953226;28;20219;-77
2021/06/16 09:26:36;;;;;;;7.77;5.87;;;33.10;94.30;;;;;;4952959;28;20210;-78
2021/06/16 09:29:05;;;;;;;6.80;5.63;;;33.00;92.20;;;;;;4952028;28;20257;-77
2021/06/16 09:31:36;;;;;;;6.50;5.90;;;33.10;93.10;;;;;;4951790;28;20216;-77
2021/06/16 09:34:10;;;;;;;5.90;5.40;;;33.10;91.20;;;;;;4957168;28;20229;-78
2021/06/16 09:36:51;;;;;;;5.50;5.00;;;33.10;91.50;;;;;;4955644;28;20809;-78
2021/06/16 09:39:21;;;;;;;5.90;5.40;;;32.80;90.20;;;;;;4956225;28;20627;-78
2021/06/16 09:42:01;;;;;;;5.87;5.37;;;32.40;91.10;;;;;;4957087;28;20669;-78
2021/06/16 09:44:48;;;;;;;5.90;5.30;;;32.50;91.50;;;;;;4955566;28;20218;-78
2021/06/16 09:47:17;;;;;;;6.30;5.70;;;32.70;93.40;;;;;;4956831;28;20210;-78
2021/06/16 09:49:48;;;;;;;5.93;5.40;;;32.90;92.40;;;;;;4956885;28;20666;-79
2021/06/16 09:52:29;;;;;;;6.00;5.50;;;33.30;93.00;;;;;;4952718;29;20226;-77
2021/06/16 09:54:56;;;;;;;6.60;6.00;;;33.40;92.50;;;;;;4955066;28;20220;-77
2021/06/16 09:57:24;;;;;;;6.70;5.50;;;33.70;91.50;;;;;;4956561;28;20250;-79
2021/06/16 09:59:50;;;;;;;6.07;5.57;;;33.40;89.60;;;;;;4955275;28;20222;-78
2021/06/16 10:02:19;;;;;;;5.63;5.22;;;33.50;87.30;;;;;;4955943;28;20245;-78
2021/06/16 10:04:49;;;;;;;5.97;5.47;;;33.30;90.00;;;;;;4956370;28;20218;-77
2021/06/16 10:07:19;;;;;;;6.00;5.50;;;33.80;87.90;;;;;;4956316;28;20277;-78
2021/06/16 10:09:52;;;;;;;5.75;5.20;;;33.20;87.90;;;;;;4956473;28;20201;-78
2021/06/16 10:12:20;;;;;;;6.43;5.63;;;33.50;86.50;;;;;;4955077;28;20586;-78
2021/06/16 10:14:48;;;;;;;5.63;5.13;;;33.80;83.80;;;;;;4948076;28;20233;-77
2021/06/16 10:17:15;;;;;;;5.65;5.03;;;33.80;82.70;;;;;;4956221;28;20195;-77
2021/06/16 10:19:43;;;;;;;5.90;5.40;;;33.50;85.70;;;;;;4955062;28;20203;-78
2021/06/16 10:22:11;;;;;;;5.73;5.33;;;33.70;88.30;;;;;;4956289;28;20199;-78
2021/06/16 10:24:38;;;;;;;6.67;6.07;;;33.50;88.00;;;;;;4954988;28;20614;-78
2021/06/16 10:27:10;;;;;;;6.07;5.57;;;33.40;87.80;;;;;;4954863;28;20216;-79
2021/06/16 10:29:41;;;;;;;6.07;5.47;;;33.30;88.60;;;;;;4956016;28;20608;-78
2021/06/16 10:32:11;;;;;;;6.05;5.53;;;33.10;83.90;;;;;;4951521;28;20219;-78
2021/06/16 10:34:59;;;;;;;5.50;5.10;;;33.30;82.10;;;;;;4954678;28;20215;-77
2021/06/16 10:37:32;;;;;;;5.72;5.15;;;33.50;85.00;;;;;;4956236;28;20678;-78
2021/06/16 10:40:27;;;;;;;5.88;5.38;;;33.50;81.60;;;;;;4949762;29;20206;-77
2021/06/16 10:43:31;;;;;;;5.70;5.20;;;33.40;80.40;;;;;;4948955;28;20210;-77
2021/06/16 10:46:00;;;;;;;5.80;5.30;;;33.40;81.10;;;;;;4949094;28;20694;-78
2021/06/16 10:48:51;;;;;;;5.73;5.23;;;33.30;80.70;;;;;;4955710;29;20225;-78
2021/06/16 10:51:35;;;;;;;5.50;5.10;;;33.40;81.20;;;;;;4952179;29;20190;-77
2021/06/16 10:54:23;;;;;;;5.40;4.90;;;33.30;77.70;;;;;;4950074;29;20219;-78
2021/06/16 10:56:57;;;;;;;5.80;5.30;;;33.30;80.70;;;;;;4948204;29;20182;-77
2021/06/16 11:00:01;;;;;;;5.63;5.13;;;33.50;77.90;;;;;;4955590;28;20199;-77
2021/06/16 11:02:56;;;;;;;5.80;5.30;;;33.50;78.10;;;;;;4954295;29;20202;-77
2021/06/16 11:05:27;;;;;;;6.13;5.63;;;33.50;81.30;;;;;;4952343;29;20301;-78
2021/06/16 11:07:54;;;;;;;6.07;5.57;;;33.50;79.90;;;;;;4955271;28;20634;-78
2021/06/16 11:10:21;;;;;;;5.47;5.07;;;33.50;80.00;;;;;;4955276;28;20693;-78
2021/06/16 11:12:54;;;;;;;6.93;5.80;;;33.40;79.80;;;;;;4947537;28;20198;-79
2021/06/16 11:15:33;;;;;;;5.97;5.40;;;33.30;77.40;;;;;;4983221;23;20740;-80
2021/06/16 11:18:01;;;;;;;5.60;5.03;;;33.20;78.80;;;;;;4945388;28;20207;-80
2021/06/16 11:20:34;;;;;;;5.70;5.20;;;33.10;79.50;;;;;;4952024;28;20207;-80
2021/06/16 11:23:03;;;;;;;5.43;5.03;;;33.00;78.00;;;;;;4938378;29;20219;-82
2021/06/16 11:25:34;;;;;;;5.53;5.13;;;32.60;78.60;;;;;;4939484;29;20219;-81
2021/06/16 11:28:12;;;;;;;5.90;5.50;;;32.80;80.20;;;;;;4939976;29;20215;-80
2021/06/16 11:30:42;;;;;;;5.87;5.37;;;32.90;79.50;;;;;;4941206;29;20211;-81
2021/06/16 11:33:42;;;;;;;5.83;5.33;;;32.80;78.60;;;;;;4939139;29;20207;-80
2021/06/16 11:36:27;;;;;;;6.30;5.80;;;32.50;78.10;;;;;;4935022;29;20386;-81
2021/06/16 11:39:03;;;;;;;6.20;5.80;;;32.30;78.30;;;;;;4932327;29;20199;-80
2021/06/16 11:41:30;;;;;;;6.30;5.80;;;32.20;77.80;;;;;;4937951;29;20577;-81
2021/06/16 11:43:59;;;;;;;5.80;5.40;;;32.20;77.70;;;;;;4940468;29;20255;-80
2021/06/16 11:46:28;;;;;;;5.47;5.07;;;32.30;78.50;;;;;;4939205;29;20204;-80
2021/06/16 11:49:04;;;;;;;6.10;5.70;;;32.50;78.80;;;;;;4938762;29;20313;-79
2021/06/16 11:51:36;;;;;;;6.27;5.77;;;32.70;77.60;;;;;;4938897;29;20211;-80
2021/06/16 11:54:20;;;;;;;6.17;5.77;;;32.50;74.60;;;;;;4938253;29;20235;-80
2021/06/16 11:56:48;;;;;;;7.27;6.80;;;32.30;76.20;;;;;;4930524;29;20202;-81
2021/06/16 11:59:15;;;;;;;7.23;6.73;;;32.10;75.90;;;;;;4938214;29;20208;-79
2021/06/16 12:01:44;;;;;;;7.20;6.70;;;32.10;76.30;;;;;;4939457;29;20199;-80
2021/06/16 12:04:13;;;;;;;7.20;6.70;;;32.10;75.90;;;;;;4937268;29;20229;-80
2021/06/16 12:06:42;;;;;;;7.20;6.80;;;31.90;76.70;;;;;;4937585;29;20207;-80
2021/06/16 12:09:09;;;;;;;7.63;7.13;;;31.90;77.70;;;;;;4938098;29;20234;-81
2021/06/16 12:11:36;;;;;;;7.87;7.20;;;32.10;77.90;;;;;;4938603;29;20211;-80
2021/06/16 12:14:06;;;;;;;7.23;6.70;;;32.20;77.30;;;;;;4937978;29;20223;-82
2021/06/16 12:16:36;;;;;;;7.17;6.67;;;32.30;76.50;;;;;;4938684;29;20210;-79
2021/06/16 12:19:15;;;;;;;7.37;6.87;;;32.40;76.10;;;;;;4938751;29;20571;-80
2021/06/16 12:21:53;;;;;;;7.13;6.53;;;32.40;75.00;;;;;;4936405;29;20207;-80
2021/06/16 12:24:22;;;;;;;6.90;6.40;;;32.30;73.60;;;;;;4938293;29;20211;-79
2021/06/16 12:27:01;;;;;;;6.20;5.70;;;31.90;74.10;;;;;;4937130;29;20219;-79
2021/06/16 12:29:28;;;;;;;6.10;5.60;;;31.70;74.10;;;;;;4934949;29;20672;-80
2021/06/16 12:31:57;;;;;;;7.47;6.87;;;31.60;75.90;;;;;;4936690;29;20207;-80
2021/06/16 12:34:32;;;;;;;5.90;5.43;;;31.50;77.30;;;;;;4936400;29;20278;-80
2021/06/16 12:37:11;;;;;;;7.13;6.63;;;31.60;76.90;;;;;;4935791;29;20215;-80
2021/06/16 12:39:56;;;;;;;6.73;6.23;;;31.50;75.00;;;;;;4936803;29;20207;-79
2021/06/16 12:42:34;;;;;;;6.70;6.10;;;31.60;77.60;;;;;;4937376;29;20202;-79
2021/06/16 12:45:01;;;;;;;6.83;6.33;;;31.60;75.00;;;;;;4935827;29;20231;-81
2021/06/16 12:47:32;;;;;;;6.67;6.17;;;31.60;75.00;;;;;;4935026;29;20710;-80
2021/06/16 12:49:59;;;;;;;6.57;6.10;;;31.70;77.30;;;;;;4935290;29;20200;-79
2021/06/16 12:52:32;;;;;;;6.40;5.90;;;31.70;79.30;;;;;;4936999;29;20246;-80
2021/06/16 12:55:11;;;;;;;6.80;6.40;;;31.70;77.80;;;;;;4934786;29;20230;-80
2021/06/16 12:57:44;;;;;;;6.57;6.07;;;31.80;78.10;;;;;;4935049;29;20207;-79
2021/06/16 13:00:14;;;;;;;6.70;6.10;;;31.90;78.60;;;;;;4935759;29;20199;-79